Glencoe, Kentucky
Current Conditions -  °F | °C
As of 10:52 PM on Sunday 23 Nov 2014 (Local Time) from KCVG Reporting Station
Light Rain Light Rain  
Wind Chill: 57°   Ceiling: 1600
Heat Index: 57°   Visibility: 8mi
Dew Point: 52°   Wind: 23mph
Humidity: 83%   Direction: 170°S
Pressure: 29.29"   Gusts: 29mph
Location:  38.71°N, 84.82°W
Report Text: KCVG 240352Z 17020G25KT 8SM -RA FEW010 OVC016 14/11 A2929 RMK AO2 PK WND 17027/0340 RAB19 SLP915 P0003 T01390111
Loading
Personal Weather Stations






























Interactive Weather Map New forecast layout! Learn more

10-Day Weather Forecast

Advertisements
Track Severe Weather on mobile